Time;durP1;ratioP1;P1;durP2;ratioP2;P2;SDS_P1;SDS_P2;PMS_P1;PMS_P2;Temp;Humidity;BMP_temperature;BMP_pressure;BME280_temperature;BME280_humidity;BME280_pressure;Samples;Min_cycle;Max_cycle;Signal;HPM_P1;HPM_P2
2022/05/27 00:02:01;;;;;;;;;0.67;0.67;;;;;18.38;48.11;101971.19;5036711;28;45443;-77
2022/05/27 00:04:27;;;;;;;;;3.00;3.00;;;;;18.78;48.14;102037.78;5035468;28;45404;-77
2022/05/27 00:06:53;;;;;;;;;0.00;0.00;;;;;18.71;48.11;102025.16;5035684;28;45585;-76
2022/05/27 00:09:18;;;;;;;;;1.00;1.00;;;;;18.89;48.37;102055.47;5021528;28;45258;-78
2022/05/27 00:11:44;;;;;;;;;0.00;0.00;;;;;19.02;48.27;102088.19;5041385;28;45239;-78
2022/05/27 00:14:09;;;;;;;;;1.00;1.00;;;;;18.82;48.40;102062.53;5019829;28;45612;-76
2022/05/27 00:16:34;;;;;;;;;0.67;0.67;;;;;18.70;48.22;102036.94;5019456;28;45499;-79
2022/05/27 00:19:00;;;;;;;;;1.67;0.67;;;;;18.98;48.28;102078.72;5022580;28;46969;-79
2022/05/27 00:21:26;;;;;;;;;0.33;0.00;;;;;18.17;48.57;101954.63;5023011;28;45364;-77
2022/05/27 00:23:52;;;;;;;;;1.67;1.00;;;;;18.62;48.53;102039.56;5035826;28;45325;-77
2022/05/27 00:26:18;;;;;;;;;1.00;1.00;;;;;18.79;48.60;102073.63;5019827;28;45256;-77
2022/05/27 00:28:43;;;;;;;;;1.33;1.33;;;;;18.63;48.59;102044.00;5033539;28;46155;-76
2022/05/27 00:31:09;;;;;;;;;0.00;0.00;;;;;18.83;48.38;102072.31;5032607;28;45268;-76
2022/05/27 00:33:37;;;;;;;;;1.00;0.33;;;;;18.69;48.53;102043.31;5034501;28;45487;-76
2022/05/27 00:36:08;;;;;;;;;1.00;1.00;;;;;18.74;48.78;102062.53;5034729;28;45495;-77
2022/05/27 00:38:34;;;;;;;;;1.00;1.00;;;;;18.58;48.65;102020.19;5017513;28;47470;-75
2022/05/27 00:41:00;;;;;;;;;2.00;1.00;;;;;18.62;48.74;102009.94;5034277;28;45497;-77
2022/05/27 00:43:25;;;;;;;;;2.00;2.00;;;;;18.44;48.64;101969.69;5016769;28;45859;-79
2022/05/27 00:46:01;;;;;;;;;3.00;0.00;;;;;18.55;48.70;101990.91;5022084;28;45266;-77
2022/05/27 00:48:27;;;;;;;;;0.33;0.33;;;;;18.90;49.25;102043.69;5029384;28;46074;-76
2022/05/27 00:50:55;;;;;;;;;2.00;0.67;;;;;18.50;49.27;101983.31;5018704;28;45320;-76
2022/05/27 00:53:38;;;;;;;;;2.00;2.00;;;;;18.53;48.85;101991.06;5018910;28;45451;-78
2022/05/27 00:56:05;;;;;;;;;1.00;1.00;;;;;18.00;49.58;101920.59;5017377;28;45598;-78
2022/05/27 00:58:37;;;;;;;;;1.67;1.67;;;;;18.68;49.49;102049.72;5018806;28;45348;-76
2022/05/27 01:01:04;;;;;;;;;1.00;1.00;;;;;18.68;49.76;102055.09;5019692;28;45421;-79
2022/05/27 01:03:31;;;;;;;;;0.33;0.33;;;;;18.47;50.05;102036.69;5044560;28;45562;-76
2022/05/27 01:05:57;;;;;;;;;1.00;1.00;;;;;18.50;50.05;102039.88;5037188;28;45483;-76
2022/05/27 01:08:26;;;;;;;;;1.67;1.67;;;;;18.58;49.64;102055.22;5053404;28;47464;-77
2022/05/27 01:11:13;;;;;;;;;1.00;0.67;;;;;18.55;50.41;102053.69;5036333;28;45470;-78
2022/05/27 01:13:54;;;;;;;;;1.00;1.00;;;;;17.99;50.69;101973.59;5038630;28;45309;-77
2022/05/27 01:16:30;;;;;;;;;0.67;0.67;;;;;18.41;50.52;102054.31;5038770;28;45459;-79
2022/05/27 01:22:14;;;;;;;;;2.00;2.00;;;;;18.38;51.14;102051.09;5038041;28;45356;-78
2022/05/27 01:24:58;;;;;;;;;3.00;0.33;;;;;18.24;51.34;102028.38;5037006;28;45376;-77
2022/05/27 01:27:26;;;;;;;;;0.33;0.33;;;;;17.63;51.49;101940.63;5033620;28;45606;-78
2022/05/27 01:30:14;;;;;;;;;1.33;1.33;;;;;18.26;51.49;102039.81;5033188;28;47586;-77
2022/05/27 01:33:00;;;;;;;;;2.67;1.33;;;;;18.26;51.64;102042.50;5033299;28;45202;-78
2022/05/27 01:35:57;;;;;;;;;1.00;1.00;;;;;18.22;51.96;102047.38;5018017;28;45680;-77
2022/05/27 01:38:37;;;;;;;;;1.00;1.00;;;;;18.03;52.07;102006.41;5033397;28;45603;-78
2022/05/27 01:41:28;;;;;;;;;2.00;2.00;;;;;18.07;51.70;102023.91;5018610;28;46074;-78
2022/05/27 01:43:59;;;;;;;;;1.00;1.00;;;;;18.21;52.20;102036.75;5016016;28;45448;-75
2022/05/27 01:46:37;;;;;;;;;1.00;1.00;;;;;18.04;51.92;102014.31;5033009;28;45254;-75
2022/05/27 01:49:27;;;;;;;;;1.67;1.67;;;;;17.96;52.23;101994.59;5016814;28;45449;-76
2022/05/27 01:52:02;;;;;;;;;0.67;0.67;;;;;17.77;51.51;101975.00;5017361;28;47826;-77
2022/05/27 01:54:48;;;;;;;;;3.00;1.67;;;;;17.94;52.14;102009.06;5016064;28;45487;-76
2022/05/27 01:57:36;;;;;;;;;2.00;0.67;;;;;16.44;51.71;101781.03;5016464;28;45446;-76
2022/05/27 02:00:07;;;;;;;;;1.00;1.00;;;;;18.07;51.76;102045.44;5018374;28;45354;-75
2022/05/27 02:02:37;;;;;;;;;1.33;1.33;;;;;17.83;51.64;102013.91;5033007;28;47837;-76
2022/05/27 02:05:09;;;;;;;;;2.33;2.00;;;;;17.33;51.39;101936.59;5017736;28;45333;-77
2022/05/27 02:07:40;;;;;;;;;1.67;1.67;;;;;17.93;51.88;102045.03;5016747;28;45298;-78
2022/05/27 02:10:15;;;;;;;;;3.33;2.00;;;;;17.70;51.71;102008.94;5016361;28;45275;-75
2022/05/27 02:12:47;;;;;;;;;2.00;1.00;;;;;17.88;51.88;102042.00;5016964;28;48460;-77
2022/05/27 02:15:25;;;;;;;;;3.33;1.67;;;;;17.83;51.69;102036.25;5021096;28;45573;-77
2022/05/27 02:17:58;;;;;;;;;1.33;1.33;;;;;17.84;51.77;102040.63;5018785;28;45408;-77
2022/05/27 02:20:30;;;;;;;;;5.00;3.00;;;;;17.30;51.94;101953.03;5034761;28;45656;-78
2022/05/27 02:23:00;;;;;;;;;2.33;2.33;;;;;17.81;51.98;102042.78;5019836;28;45481;-75
2022/05/27 02:25:35;;;;;;;;;2.00;2.00;;;;;17.49;52.08;101995.00;5017475;28;45547;-78
2022/05/27 02:28:17;;;;;;;;;2.00;1.00;;;;;17.70;52.08;102025.09;5017878;28;45439;-76
2022/05/27 02:30:48;;;;;;;;;3.00;2.00;;;;;17.79;51.87;102034.03;5017831;28;45493;-78
2022/05/27 02:36:11;;;;;;;;;2.33;1.67;;;;;17.05;51.90;101906.38;5017748;28;45226;-79
2022/05/27 02:38:36;;;;;;;;;4.00;2.00;;;;;17.62;52.26;101990.06;5029491;28;45435;-77
2022/05/27 02:41:30;;;;;;;;;2.00;2.00;;;;;17.53;52.47;101980.22;5037035;28;45309;-78
2022/05/27 02:43:58;;;;;;;;;0.00;0.00;;;;;17.91;52.13;102047.06;5036003;28;45605;-76
2022/05/27 02:46:36;;;;;;;;;1.67;1.67;;;;;17.84;52.22;102042.47;5019963;28;45452;-76
2022/05/27 02:49:39;;;;;;;;;1.00;1.00;;;;;17.86;52.23;102041.31;5015900;28;45406;-77
2022/05/27 02:52:04;;;;;;;;;1.00;1.00;;;;;17.82;52.57;102044.47;5017480;28;45408;-78
2022/05/27 02:54:46;;;;;;;;;1.00;1.00;;;;;17.55;52.68;102005.13;5032154;28;45662;-78
2022/05/27 02:57:19;;;;;;;;;1.33;1.33;;;;;17.69;52.63;102034.16;5032142;28;45448;-76
2022/05/27 02:59:46;;;;;;;;;1.33;1.00;;;;;17.52;53.02;102021.56;5032578;28;45389;-79
2022/05/27 03:02:15;;;;;;;;;4.33;2.00;;;;;17.76;53.21;102050.50;5034522;28;45670;-76
2022/05/27 03:04:52;;;;;;;;;1.00;1.00;;;;;17.71;53.16;102025.91;5035171;28;48088;-78
2022/05/27 03:07:59;;;;;;;;;1.00;1.00;;;;;17.84;53.09;102043.31;5038426;28;46454;-77
2022/05/27 03:10:39;;;;;;;;;1.33;1.33;;;;;17.87;52.98;102048.38;5026175;28;45285;-77
2022/05/27 03:13:04;;;;;;;;;2.67;2.67;;;;;17.90;52.87;102053.44;5040351;28;45418;-76
2022/05/27 03:15:39;;;;;;;;;6.33;3.00;;;;;17.31;52.93;101934.06;5030878;28;48406;-79
2022/05/27 03:18:07;;;;;;;;;3.00;1.67;;;;;17.93;52.78;102041.50;5025231;28;45257;-77
2022/05/27 03:20:51;;;;;;;;;1.00;1.00;;;;;17.90;52.86;102048.06;5020372;28;45543;-78
2022/05/27 03:23:29;;;;;;;;;7.00;4.00;;;;;17.89;52.93;102046.38;5036293;28;45427;-80
2022/05/27 03:26:07;;;;;;;;;2.00;2.00;;;;;17.60;52.68;102003.63;5025137;28;46652;-76
2022/05/27 03:28:46;;;;;;;;;3.00;3.00;;;;;17.59;52.90;102006.47;5040701;28;45384;-78
2022/05/27 03:31:36;;;;;;;;;5.00;4.00;;;;;17.82;52.96;102044.47;5042686;28;45333;-76
2022/05/27 03:34:31;;;;;;;;;2.67;2.67;;;;;17.79;52.66;102048.31;5034038;28;45968;-77
2022/05/27 03:37:06;;;;;;;;;4.33;4.33;;;;;17.46;52.79;101989.94;5033797;28;47597;-78
2022/05/27 03:39:51;;;;;;;;;2.00;2.00;;;;;17.70;52.81;102035.84;5018623;28;45245;-77
2022/05/27 03:42:19;;;;;;;;;3.00;3.00;;;;;17.58;52.84;102010.16;5035223;28;45392;-78
2022/05/27 03:44:51;;;;;;;;;1.00;1.00;;;;;17.45;52.76;101994.47;5018333;28;45315;-77
2022/05/27 03:47:16;;;;;;;;;2.33;2.00;;;;;17.77;52.47;102042.25;5032477;28;46614;-75
2022/05/27 03:49:42;;;;;;;;;3.00;1.67;;;;;17.76;52.68;102035.19;5038271;28;45925;-78
2022/05/27 03:52:18;;;;;;;;;3.00;3.00;;;;;17.50;52.81;101989.47;5038564;28;45386;-77
2022/05/27 03:54:44;;;;;;;;;6.33;4.33;;;;;17.70;52.95;102038.53;5040023;28;45308;-76
2022/05/27 03:57:09;;;;;;;;;2.33;2.00;;;;;17.68;52.74;102031.63;5039658;28;45464;-76
2022/05/27 03:59:34;;;;;;;;;2.00;2.00;;;;;17.52;52.92;102005.44;5039578;28;45418;-78
2022/05/27 04:02:00;;;;;;;;;3.00;3.00;;;;;17.50;52.42;101994.84;5038412;28;45313;-78
2022/05/27 04:04:28;;;;;;;;;2.00;2.00;;;;;17.61;52.43;102032.19;5038787;28;45646;-75
2022/05/27 04:06:54;;;;;;;;;3.33;2.00;;;;;17.75;52.63;102054.19;5039161;28;45703;-79
2022/05/27 04:09:22;;;;;;;;;2.33;2.33;;;;;17.74;52.78;102047.13;5037735;28;46314;-77
2022/05/27 04:11:48;;;;;;;;;3.00;1.33;;;;;17.44;52.92;102003.56;5038189;28;45351;-77
2022/05/27 04:14:14;;;;;;;;;2.00;2.00;;;;;17.39;52.99;101996.94;5038037;28;45275;-76
2022/05/27 04:16:40;;;;;;;;;4.00;4.00;;;;;17.64;52.84;102049.91;5021843;28;46492;-76
2022/05/27 04:19:06;;;;;;;;;2.00;2.00;;;;;17.59;53.29;102054.88;5020762;28;45778;-77
2022/05/27 04:21:31;;;;;;;;;3.67;3.67;;;;;17.63;52.91;102045.53;5030846;28;45504;-77
2022/05/27 04:23:58;;;;;;;;;3.00;3.00;;;;;15.80;53.14;101739.25;5023001;28;45268;-76
2022/05/27 04:26:24;;;;;;;;;4.67;3.00;;;;;17.27;53.26;102002.59;5019491;28;45813;-77
2022/05/27 04:28:49;;;;;;;;;5.33;4.00;;;;;16.99;53.33;101948.13;5020175;28;45321;-78
2022/05/27 04:31:15;;;;;;;;;5.67;5.67;;;;;17.71;53.36;102061.72;5021105;28;45573;-77
2022/05/27 04:33:41;;;;;;;;;4.00;3.00;;;;;17.33;53.45;102007.31;5020123;28;45273;-77
2022/05/27 04:36:08;;;;;;;;;5.33;5.33;;;;;17.62;53.31;102060.81;5021002;28;45817;-77
2022/05/27 04:38:36;;;;;;;;;4.00;3.00;;;;;17.79;53.35;102061.75;5019079;28;45350;-76
2022/05/27 04:41:01;;;;;;;;;5.33;4.00;;;;;17.42;53.18;101993.94;5018852;28;45208;-76
2022/05/27 04:43:27;;;;;;;;;4.33;4.33;;;;;17.80;53.37;102063.44;5033886;28;45335;-76
2022/05/27 04:45:53;;;;;;;;;3.67;3.67;;;;;17.64;53.71;102031.91;5043030;28;47452;-77
2022/05/27 04:48:19;;;;;;;;;8.00;8.00;;;;;17.77;53.17;102063.78;5018574;28;45468;-77
2022/05/27 04:50:45;;;;;;;;;6.00;5.67;;;;;17.58;53.50;102031.69;5017256;28;45435;-77
2022/05/27 04:53:11;;;;;;;;;9.00;7.33;;;;;17.80;53.69;102068.84;5034585;28;45289;-76
2022/05/27 04:55:38;;;;;;;;;7.33;5.33;;;;;17.34;53.68;101982.13;5033695;28;47802;-77
2022/05/27 04:58:04;;;;;;;;;9.67;8.00;;;;;17.80;53.90;102058.06;5017935;28;45594;-76
2022/05/27 05:00:31;;;;;;;;;9.00;8.00;;;;;17.28;53.70;101977.41;5021857;28;45216;-77
2022/05/27 05:02:57;;;;;;;;;10.67;7.33;;;;;17.53;53.88;102028.63;5020895;28;45179;-78
2022/05/27 05:05:25;;;;;;;;;8.33;7.33;;;;;17.76;53.76;102051.31;5018461;28;46749;-77
2022/05/27 05:07:58;;;;;;;;;8.00;7.00;;;;;17.73;53.89;102054.34;5017119;28;45461;-76
2022/05/27 05:10:25;;;;;;;;;8.67;7.67;;;;;17.81;54.33;102065.13;5033323;28;45442;-79
2022/05/27 05:12:51;;;;;;;;;5.00;5.00;;;;;17.67;54.32;102033.44;5018553;28;45226;-76
2022/05/27 05:15:19;;;;;;;;;7.67;7.67;;;;;17.77;54.16;102047.63;5024096;28;49136;-78
2022/05/27 05:17:44;;;;;;;;;6.00;6.00;;;;;17.50;54.29;101994.00;5036452;28;45513;-78
2022/05/27 05:20:13;;;;;;;;;5.33;5.00;;;;;17.91;53.88;102063.19;5038545;28;45420;-77
2022/05/27 05:22:39;;;;;;;;;8.33;7.00;;;;;17.94;54.09;102076.31;5038385;28;45246;-78
2022/05/27 05:25:06;;;;;;;;;5.00;4.00;;;;;17.83;53.84;102055.09;5038387;28;45428;-77
2022/05/27 05:27:33;;;;;;;;;9.33;8.33;;;;;17.81;54.19;102059.75;5038117;28;45505;-78
2022/05/27 05:29:59;;;;;;;;;8.67;8.67;;;;;17.91;53.87;102075.81;5037499;28;44891;-77
2022/05/27 05:32:24;;;;;;;;;8.33;8.33;;;;;17.69;54.38;102026.09;5036797;28;45662;-79
2022/05/27 05:34:50;;;;;;;;;6.33;5.33;;;;;17.58;54.28;102021.78;5036693;28;48100;-76
2022/05/27 05:37:16;;;;;;;;;8.00;7.00;;;;;17.38;54.35;101993.41;5037849;28;45568;-78
2022/05/27 05:39:41;;;;;;;;;9.00;8.33;;;;;17.86;54.13;102068.22;5037602;28;45441;-76
2022/05/27 05:42:08;;;;;;;;;8.00;7.33;;;;;17.60;54.48;102024.28;5036407;28;45682;-78
2022/05/27 05:44:34;;;;;;;;;8.67;7.67;;;;;17.73;54.79;102034.66;5028959;28;46491;-78
2022/05/27 05:47:01;;;;;;;;;9.00;7.67;;;;;17.69;54.56;102030.63;5033313;28;45432;-77
2022/05/27 05:49:27;;;;;;;;;8.33;6.00;;;;;17.61;54.40;102025.97;5016531;28;45397;-77
2022/05/27 05:51:55;;;;;;;;;9.67;9.67;;;;;17.68;54.47;102026.25;5018342;28;45523;-77
2022/05/27 05:54:21;;;;;;;;;11.33;10.33;;;;;17.92;54.41;102069.41;5017876;28;45657;-77
2022/05/27 05:56:48;;;;;;;;;11.67;10.00;;;;;17.83;54.33;102051.56;5018142;28;45521;-78
2022/05/27 05:59:15;;;;;;;;;10.67;10.67;;;;;17.49;54.50;101992.31;5016897;28;45347;-79
2022/05/27 06:01:41;;;;;;;;;28.00;25.67;;;;;17.96;54.91;102072.63;5033936;28;45427;-78
2022/05/27 06:04:06;;;;;;;;;16.00;16.00;;;;;17.99;54.92;102072.31;5033059;28;46405;-78
2022/05/27 06:06:32;;;;;;;;;17.00;16.00;;;;;17.83;55.21;102047.03;5016626;28;46058;-76
2022/05/27 06:08:58;;;;;;;;;14.67;14.00;;;;;17.97;55.04;102064.41;5016458;28;45511;-76
2022/05/27 06:11:23;;;;;;;;;18.00;14.67;;;;;17.71;54.71;102007.94;5016764;28;45313;-77
2022/05/27 06:13:49;;;;;;;;;11.67;10.67;;;;;17.71;54.29;102009.78;5032798;28;47799;-77
2022/05/27 06:16:14;;;;;;;;;19.33;13.67;;;;;17.65;54.71;102000.47;5015932;28;45355;-78
2022/05/27 06:18:40;;;;;;;;;11.33;10.33;;;;;17.95;54.16;102061.03;5033535;28;45385;-77
2022/05/27 06:21:05;;;;;;;;;14.00;9.67;;;;;17.83;54.53;102046.19;5020701;28;45274;-77
2022/05/27 06:23:31;;;;;;;;;9.33;9.00;;;;;17.52;55.17;101994.69;5037789;28;47412;-77
2022/05/27 06:26:08;;;;;;;;;8.33;7.33;;;;;18.04;55.03;102078.91;5025093;28;45285;-76
2022/05/27 06:36:47;;;;;;;;;8.33;6.33;;;;;18.00;55.35;102084.75;5017381;28;45303;-77
2022/05/27 06:39:14;;;;;;;;;5.00;5.00;;;;;17.93;55.13;102069.25;5034782;28;45365;-77
2022/05/27 06:41:39;;;;;;;;;4.67;4.67;;;;;17.97;55.19;102063.56;5034170;28;45201;-78
2022/05/27 06:44:06;;;;;;;;;2.00;2.00;;;;;17.91;55.21;102054.28;5032684;28;46751;-78
2022/05/27 06:46:32;;;;;;;;;3.67;3.67;;;;;18.05;54.90;102077.06;5017520;28;45411;-79
2022/05/27 06:48:57;;;;;;;;;3.00;2.00;;;;;18.07;55.17;102085.81;5032738;28;45459;-77
2022/05/27 06:51:23;;;;;;;;;3.67;2.00;;;;;17.91;54.79;102059.66;5017814;28;45534;-79
2022/05/27 06:53:49;;;;;;;;;3.00;3.00;;;;;17.75;54.75;102028.13;5015997;28;47175;-78
2022/05/27 06:56:15;;;;;;;;;4.67;2.33;;;;;18.04;54.50;102080.75;5016967;28;45343;-78
2022/05/27 06:58:42;;;;;;;;;4.00;3.00;;;;;17.98;54.91;102065.25;5032832;28;45327;-78
2022/05/27 07:01:08;;;;;;;;;6.67;4.33;;;;;17.97;55.07;102058.16;5027044;28;45346;-79
2022/05/27 07:03:37;;;;;;;;;5.33;5.33;;;;;17.82;54.98;102034.56;5032891;28;48169;-76
2022/05/27 07:06:05;;;;;;;;;6.00;6.00;;;;;18.16;55.35;102085.69;5015807;28;45478;-75
2022/05/27 07:08:30;;;;;;;;;6.00;6.00;;;;;17.12;54.87;101928.91;5032753;28;45569;-77
2022/05/27 07:10:56;;;;;;;;;9.00;8.00;;;;;17.83;55.13;102035.41;5015744;28;45485;-77
2022/05/27 07:13:21;;;;;;;;;9.67;7.67;;;;;17.97;55.13;102063.56;5017291;28;46391;-79
2022/05/27 07:15:47;;;;;;;;;7.67;5.67;;;;;18.06;55.17;102073.38;5026092;28;45566;-79
2022/05/27 07:18:12;;;;;;;;;11.00;9.33;;;;;18.18;55.25;102093.59;5038163;28;45635;-76
2022/05/27 07:20:40;;;;;;;;;11.00;8.67;;;;;18.19;54.91;102090.75;5037312;28;45462;-77
2022/05/27 07:23:06;;;;;;;;;12.33;9.00;;;;;18.21;54.77;102085.19;5036375;28;47988;-77
2022/05/27 07:25:35;;;;;;;;;9.33;8.33;;;;;18.19;55.06;102068.38;5033826;28;45722;-78
2022/05/27 07:28:08;;;;;;;;;10.67;9.33;;;;;18.43;54.60;102076.56;5017674;28;45443;-79
2022/05/27 07:30:35;;;;;;;;;12.67;12.67;;;;;18.50;54.31;102082.13;5017143;28;45647;-78
2022/05/27 07:33:01;;;;;;;;;14.00;13.00;;;;;18.50;54.50;102064.13;5032202;28;47140;-78
2022/05/27 07:35:27;;;;;;;;;13.67;13.67;;;;;17.64;53.87;101901.97;5020740;28;45338;-78
2022/05/27 07:37:52;;;;;;;;;15.00;9.33;;;;;18.47;54.07;102021.38;5025375;28;45375;-78
2022/05/27 07:40:18;;;;;;;;;9.00;9.00;;;;;18.80;53.61;102068.09;5018937;28;46408;-75
2022/05/27 07:42:44;;;;;;;;;11.00;10.00;;;;;18.20;53.61;101968.59;5031968;28;48567;-78
2022/05/27 07:45:13;;;;;;;;;10.33;9.00;;;;;18.57;53.60;102010.44;5016880;28;45787;-78
2022/05/27 07:47:39;;;;;;;;;11.33;10.67;;;;;19.10;53.72;102088.19;5015383;28;45485;-79
2022/05/27 07:50:07;;;;;;;;;16.67;10.00;;;;;19.19;53.31;102085.47;5016806;28;45392;-79
2022/05/27 07:52:34;;;;;;;;;7.33;7.33;;;;;19.18;52.75;102059.53;5019916;28;47266;-80
2022/05/27 07:55:03;;;;;;;;;5.00;5.00;;;;;19.18;52.61;102056.84;5019071;28;45401;-81
2022/05/27 07:57:29;;;;;;;;;9.00;8.33;;;;;19.11;52.70;102033.25;5024502;28;45455;-76
2022/05/27 07:59:54;;;;;;;;;8.67;7.33;;;;;19.40;52.51;102077.72;5035765;28;45395;-80
2022/05/27 08:02:23;;;;;;;;;7.33;7.33;;;;;18.97;52.32;102008.81;5048543;28;48414;-79
2022/05/27 08:04:49;;;;;;;;;11.67;10.33;;;;;19.33;52.20;102061.38;5039064;28;45558;-77
2022/05/27 08:07:15;;;;;;;;;13.00;8.33;;;;;19.47;52.46;102083.31;5038942;28;45240;-79
2022/05/27 08:09:40;;;;;;;;;11.33;6.00;;;;;19.26;52.22;102046.06;5039324;28;45237;-79
2022/05/27 08:12:06;;;;;;;;;7.33;4.33;;;;;19.38;52.17;102061.72;5031160;28;47156;-82
2022/05/27 08:14:32;;;;;;;;;9.33;9.33;;;;;18.99;52.27;101998.72;5026512;28;45435;-80
2022/05/27 08:16:59;;;;;;;;;8.00;8.00;;;;;19.31;52.21;102054.50;5034374;28;45384;-79
2022/05/27 08:19:25;;;;;;;;;7.67;7.67;;;;;19.30;52.21;102048.25;5034042;28;45348;-80
2022/05/27 08:21:50;;;;;;;;;6.33;6.33;;;;;19.44;52.23;102093.44;5039896;28;46429;-78
2022/05/27 08:24:16;;;;;;;;;10.33;8.67;;;;;19.42;52.67;102081.97;5041822;28;45791;-80
2022/05/27 08:26:43;;;;;;;;;5.00;5.00;;;;;19.44;52.33;102085.34;5033241;28;45363;-78
2022/05/27 08:29:10;;;;;;;;;7.33;6.00;;;;;19.22;52.13;102050.97;5019424;28;45551;-79
2022/05/27 08:31:38;;;;;;;;;7.67;7.67;;;;;19.37;52.79;102059.19;5019028;28;45364;-78
2022/05/27 08:39:46;;;;;;;;;5.00;4.00;;;;;19.56;52.17;102088.53;5020023;28;45321;-79
2022/05/27 08:42:29;;;;;;;;;12.00;11.00;;;;;19.54;52.54;102081.63;5033899;28;46056;-77
2022/05/27 08:45:13;;;;;;;;;9.33;7.67;;;;;19.55;53.04;102089.56;5019026;28;45483;-78
2022/05/27 08:47:44;;;;;;;;;4.67;4.00;;;;;19.54;52.49;102081.63;5034626;28;45363;-79
2022/05/27 08:50:22;;;;;;;;;6.00;6.00;;;;;19.19;52.51;102023.47;5017827;28;45749;-78
2022/05/27 08:52:55;;;;;;;;;7.00;5.67;;;;;19.57;52.73;102089.38;5025863;28;45582;-76
2022/05/27 09:01:25;;;;;;;;;4.67;4.67;;;;;19.51;53.33;102090.03;5053122;28;45450;-78
2022/05/27 09:04:00;;;;;;;;;7.33;6.67;;;;;18.76;53.12;101963.50;5058706;28;45511;-77
2022/05/27 09:06:38;;;;;;;;;9.67;8.33;;;;;19.53;54.14;102086.16;5038541;28;45650;-78
2022/05/27 09:09:06;;;;;;;;;5.00;5.00;;;;;19.58;53.55;102091.91;5037425;28;45597;-79
2022/05/27 09:12:14;;;;;;;;;6.00;6.00;;;;;19.61;53.64;102091.56;5038984;28;45619;-77
2022/05/27 09:14:45;;;;;;;;;4.33;3.33;;;;;19.47;53.57;102067.97;5036155;28;46356;-78
2022/05/27 09:17:29;;;;;;;;;5.67;4.00;;;;;19.03;53.65;101995.53;5021705;28;45610;-79
2022/05/27 09:20:25;;;;;;;;;5.67;4.00;;;;;19.59;53.77;102085.50;5030725;28;45585;-75
2022/05/27 09:23:10;;;;;;;;;4.00;4.00;;;;;19.60;53.70;102080.94;5039750;28;45594;-76
2022/05/27 09:26:04;;;;;;;;;6.67;5.33;;;;;19.54;54.27;102065.44;5028057;28;45776;-80
2022/05/27 09:28:42;;;;;;;;;5.67;5.67;;;;;19.72;53.98;102095.78;5031647;28;45353;-80
2022/05/27 09:31:11;;;;;;;;;5.67;5.33;;;;;19.70;53.91;102087.84;5041254;28;45362;-73
2022/05/27 09:33:37;;;;;;;;;4.67;4.67;;;;;19.59;53.84;102063.91;5045704;28;45918;-78
2022/05/27 09:36:15;;;;;;;;;7.00;7.00;;;;;19.70;53.79;102082.47;5023531;28;48650;-79
2022/05/27 09:38:57;;;;;;;;;4.67;3.33;;;;;19.65;53.72;102074.03;5036909;28;45317;-79
2022/05/27 09:41:40;;;;;;;;;4.33;4.33;;;;;17.61;54.18;101714.03;5037950;28;45308;-80
2022/05/27 09:44:12;;;;;;;;;4.00;4.00;;;;;19.66;53.46;102031.72;5038150;28;45518;-76
2022/05/27 09:46:38;;;;;;;;;9.33;8.33;;;;;19.84;53.83;102072.81;5038745;28;45462;-77
2022/05/27 09:49:05;;;;;;;;;6.33;6.33;;;;;19.77;53.50;102041.28;5038384;28;45869;-79
2022/05/27 09:51:32;;;;;;;;;9.33;6.00;;;;;19.07;53.39;101913.31;5038156;28;45379;-79
2022/05/27 09:54:21;;;;;;;;;9.67;8.67;;;;;20.21;53.91;102099.19;5046860;28;45593;-78
2022/05/27 09:57:10;;;;;;;;;4.00;4.00;;;;;19.91;53.66;102024.38;5029538;28;48883;-77
2022/05/27 09:59:39;;;;;;;;;7.67;7.33;;;;;20.19;54.11;102049.91;5017560;28;45486;-75
2022/05/27 10:02:33;;;;;;;;;9.33;6.00;;;;;19.79;53.72;101961.00;5020079;28;45499;-77
2022/05/27 10:05:01;;;;;;;;;6.67;6.00;;;;;18.31;54.05;101717.09;5036769;28;45541;-84
2022/05/27 10:07:28;;;;;;;;;8.00;6.00;;;;;20.80;53.81;102094.19;5037864;28;48010;-79
2022/05/27 10:09:55;;;;;;;;;5.00;5.00;;;;;20.65;53.01;102058.16;5034433;28;45760;-82
2022/05/27 10:12:28;;;;;;;;;5.67;5.67;;;;;20.83;53.28;102091.16;5019448;28;45467;-79
2022/05/27 10:14:55;;;;;;;;;8.00;6.33;;;;;20.89;53.05;102084.19;5029995;28;45362;-78
2022/05/27 10:17:32;;;;;;;;;3.67;3.67;;;;;20.73;52.95;102044.59;5043332;28;46969;-79
2022/05/27 10:20:19;;;;;;;;;11.67;11.00;;;;;20.60;53.11;102023.56;5038085;28;45259;-80
2022/05/27 10:23:01;;;;;;;;;6.00;6.00;;;;;21.08;52.24;102067.50;5038355;28;45505;-79
2022/05/27 10:25:43;;;;;;;;;3.33;3.00;;;;;21.08;51.67;102031.50;5038834;28;45542;-80
2022/05/27 10:28:21;;;;;;;;;5.33;4.33;;;;;21.20;51.24;102016.50;5037768;28;47412;-80
2022/05/27 10:31:02;;;;;;;;;10.67;6.67;;;;;21.27;51.11;101995.03;5026164;28;46029;-76
2022/05/27 10:33:40;;;;;;;;;5.33;4.00;;;;;20.39;50.08;101798.28;5036934;28;45488;-79
2022/05/27 10:36:46;;;;;;;;;4.00;4.00;;;;;22.23;49.29;102053.72;5033005;28;45562;-80
2022/05/27 10:39:26;;;;;;;;;7.00;6.00;;;;;22.43;48.88;102057.50;5037701;28;47739;-80
2022/05/27 10:41:51;;;;;;;;;3.00;3.00;;;;;22.58;48.61;102060.16;5036502;28;45254;-78
2022/05/27 10:44:34;;;;;;;;;5.00;5.00;;;;;22.69;48.32;102055.09;5038164;28;45339;-79
2022/05/27 10:46:59;;;;;;;;;4.00;4.00;;;;;22.32;47.61;101963.16;5036530;28;45523;-81
2022/05/27 10:49:31;;;;;;;;;2.33;2.33;;;;;22.86;47.93;102060.31;5035656;28;46136;-76
2022/05/27 10:52:08;;;;;;;;;4.67;3.00;;;;;21.36;47.56;101810.78;5036641;28;45571;-80
2022/05/27 10:54:52;;;;;;;;;3.00;3.00;;;;;22.94;47.63;102060.16;5035001;28;45357;-79
2022/05/27 11:03:58;;;;;;;;;5.67;4.67;;;;;23.01;46.40;102066.47;5039048;28;45296;-81
2022/05/27 11:06:51;;;;;;;;;5.00;4.00;;;;;22.25;46.68;101908.06;5034273;28;45515;-77
2022/05/27 11:09:45;;;;;;;;;4.67;4.67;;;;;23.20;46.48;102054.13;5044602;28;45531;-78
2022/05/27 11:15:45;;;;;;;;;3.33;3.00;;;;;23.23;45.88;102030.19;5021336;28;45322;-80
2022/05/27 11:18:36;;;;;;;;;7.00;7.00;;;;;23.34;45.99;102062.19;5019661;28;45317;-79
2022/05/27 11:21:14;;;;;;;;;4.33;4.33;;;;;23.16;46.50;102033.88;5034447;28;45282;-80
2022/05/27 11:24:09;;;;;;;;;3.67;3.67;;;;;23.26;46.05;102042.53;5035800;28;46728;-81
2022/05/27 11:26:52;;;;;;;;;4.67;4.67;;;;;23.03;46.35;102019.16;5049724;28;45353;-80
2022/05/27 11:29:32;;;;;;;;;4.00;4.00;;;;;23.28;46.31;102043.16;5021501;28;45586;-79
2022/05/27 11:32:22;;;;;;;;;5.33;5.00;;;;;22.98;46.80;102004.50;5052295;28;45265;-77
2022/05/27 11:35:07;;;;;;;;;11.33;10.00;;;;;23.31;45.64;102045.47;5038792;28;45510;-81
2022/05/27 11:38:05;;;;;;;;;6.00;6.00;;;;;23.24;46.19;102044.59;5027135;28;45447;-81
2022/05/27 11:40:40;;;;;;;;;6.00;5.00;;;;;22.93;46.34;102024.06;5037221;28;45355;-79
2022/05/27 11:44:07;;;;;;;;;7.00;5.33;;;;;22.98;46.67;102040.59;5044898;28;45475;-80
2022/05/27 11:47:07;;;;;;;;;4.33;4.33;;;;;22.71;47.00;102012.34;4964381;28;46953;-77
2022/05/27 11:49:59;;;;;;;;;8.33;7.00;;;;;22.77;47.05;102043.25;5036203;28;45622;-77
2022/05/27 11:52:48;;;;;;;;;4.00;4.00;;;;;22.71;47.35;102035.91;5039452;28;45393;-76
2022/05/27 11:55:35;;;;;;;;;9.67;5.67;;;;;22.77;47.28;102035.13;5037137;28;45484;-79
2022/05/27 11:58:20;;;;;;;;;2.00;2.00;;;;;21.99;47.03;101922.09;5035537;28;45892;-80
2022/05/27 12:00:56;;;;;;;;;2.33;2.33;;;;;22.60;47.24;102002.00;5034923;28;45419;-77
2022/05/27 12:03:29;;;;;;;;;5.00;5.00;;;;;22.88;47.74;102036.53;5034701;28;45371;-79
2022/05/27 12:06:01;;;;;;;;;8.00;8.00;;;;;20.16;47.25;101591.25;5030351;28;45526;-79
2022/05/27 12:08:43;;;;;;;;;6.00;5.00;;;;;22.85;47.48;102035.06;5025760;28;47491;-78
2022/05/27 12:11:24;;;;;;;;;8.00;8.00;;;;;22.72;47.75;101999.63;5020189;28;45675;-78
2022/05/27 12:14:01;;;;;;;;;7.00;7.00;;;;;21.28;47.52;101742.44;5038421;28;45412;-77
2022/05/27 12:16:31;;;;;;;;;8.33;7.00;;;;;22.33;47.60;101902.50;5039103;28;45403;-77
2022/05/27 12:19:14;;;;;;;;;5.00;5.00;;;;;23.15;47.46;102033.03;5038670;28;45736;-78
2022/05/27 12:21:47;;;;;;;;;6.33;6.33;;;;;23.24;46.13;102028.31;5019585;28;45364;-77
2022/05/27 12:24:25;;;;;;;;;5.00;4.00;;;;;22.23;46.05;101866.78;5021125;28;45300;-79
2022/05/27 12:26:54;;;;;;;;;4.33;3.33;;;;;23.21;46.53;102029.53;5019904;28;45311;-79